Hovedside
METAR-TAF:

METAR-TAF

Lufthavner :

Lusaka internasjonale lufthavn

Lusaka, Zambia

breddegrad: 15-19-51S, lengdegrad: 028-27-09E, høyde over havet: 1152 m

Gjeldene værobservasjon

Denne rapporten ble laget for 11 timer og 0 minutter siden, klokken 17:00 UTC
Vind 4 kt fra Øst-nordøst
Temperatur 26°C
Luftfuktighet 21%
Trykk 1019 hPa
Sikt: 7000 m

METAR: FLKK 191700Z 07004KT 7000 NSC 26/02 Q1019

Tid: 06:00 (04:00 UTC)

Varsel

Denne rapporten ble laget for 12 timer og 0 minutter siden, klokken 16:00 UTC
Varsel gyldig fra 18. klokken 18 UTC til 19. klokken 24 UTC
Vind 5 kt fra Øst
Sikt 10 km eller mer
ingen skyer under 1500 m og ingen bygeskyer

TAF: FLKK 181600Z 1818/1924 09005KT CAVOK

Værobservasjoner og værvarsel for over 4000 flyplasser (METAR- og TAF-rapporter).

Tilgjengelige stasjoner er representert av de røde og gule prikkene på kartet.

Hold musepekeren over prikken for å se navnet på stasjonen.

Klikk så for å se værobservasjoner og -varsler.

For å forandre kartet kan du klikke på den grønne knappen med svart kryss for å zoome inn, på den grønne knappen med strek for å zoome ut, eller på de grønne pilene for å se tilstøtende kart.


METAR-TAF: